This is the latest recevied weather packets stored in our database for station/object DB0FN-10. If no packets are shown the sender has not sent any weather packets the latest 10 day(s).
| Time | Temp. | Humidity | Pressure | Rain* | Wind** | Luminosity | Snow |
|---|---|---|---|---|---|---|---|
| 1787996850 | 25.56° C | 46% | 1022.8 hPa | - | - | - | - |
| 1787995950 | 25° C | 50% | 1023 hPa | - | - | - | - |
| 1787995050 | 25° C | 48% | 1023.1 hPa | - | - | - | - |
| 1787994150 | 25° C | 50% | 1023.1 hPa | - | - | - | - |
| 1787993250 | 24.44° C | 54% | 1023 hPa | - | - | - | - |
| 1787992350 | 24.44° C | 57% | 1022.9 hPa | - | - | - | - |
| 1787991450 | 22.78° C | 60% | 1022.9 hPa | - | - | - | - |
| 1787990550 | 23.89° C | 56% | 1022.8 hPa | - | - | - | - |
| 1787989650 | 23.89° C | 56% | 1022.8 hPa | - | - | - | - |
| 1787988749 | 23.89° C | 53% | 1022.7 hPa | - | - | - | - |
| 1787987851 | 23.89° C | 53% | 1022.8 hPa | - | - | - | - |
| 1787986948 | 23.33° C | 58% | 1022.8 hPa | - | - | - | - |
| 1787986048 | 23.33° C | 56% | 1022.8 hPa | - | - | - | - |
| 1787985148 | 23.33° C | 56% | 1022.8 hPa | - | - | - | - |
| 1787984248 | 22.78° C | 57% | 1022.8 hPa | - | - | - | - |
| 1787983348 | 22.78° C | 58% | 1022.7 hPa | - | - | - | - |
| 1787982448 | 22.22° C | 59% | 1022.7 hPa | - | - | - | - |
| 1787981548 | 22.22° C | 58% | 1022.6 hPa | - | - | - | - |
| 1787980648 | 22.22° C | 58% | 1022.5 hPa | - | - | - | - |
| 1787979748 | 21.67° C | 60% | 1022.5 hPa | - | - | - | - |
| 1787978847 | 22.22° C | 60% | 1022.4 hPa | - | - | - | - |
| 1787977947 | 22.22° C | 60% | 1022.3 hPa | - | - | - | - |
| 1787977047 | 22.22° C | 61% | 1022.2 hPa | - | - | - | - |
| 1787976147 | 22.22° C | 61% | 1022.4 hPa | - | - | - | - |
| 1787975246 | 22.22° C | 60% | 1022.3 hPa | - | - | - | - |
* Rain since midnight (hover to see other rain measurements)
** Current wind speed in m/s (hover to see current wind gust speed)